createdAt,value
2022-10-07T00:00:54.704Z,61.07
2022-10-07T00:03:57.001Z,61.05
2022-10-07T00:06:59.315Z,61.06
2022-10-07T00:10:01.720Z,61.05
2022-10-07T00:13:04.597Z,61.05
2022-10-07T00:16:13.523Z,61.09
2022-10-07T00:19:15.702Z,61.07
2022-10-07T00:22:17.855Z,61.07
2022-10-07T00:25:20.982Z,61.04
2022-10-07T00:28:25.097Z,61.07
2022-10-07T00:31:33.411Z,61.09
2022-10-07T00:34:35.706Z,61.05
2022-10-07T00:37:43.267Z,61.05
2022-10-07T00:40:45.607Z,61.05
2022-10-07T00:43:48.152Z,61.06
2022-10-07T00:47:04.259Z,61.07
2022-10-07T00:50:14.225Z,61.11
2022-10-07T00:53:16.656Z,61.09
2022-10-07T00:56:19.504Z,61.09
2022-10-07T00:59:21.987Z,61.08
2022-10-07T01:02:26.000Z,61.09
2022-10-07T01:05:28.085Z,61.11
2022-10-07T01:08:30.271Z,61.07
2022-10-07T01:12:32.371Z,61.09
2022-10-07T01:15:46.210Z,61.06
2022-10-07T01:18:57.453Z,61.10
2022-10-07T01:22:13.791Z,61.06
2022-10-07T01:25:33.760Z,61.08
2022-10-07T01:28:42.441Z,61.10
2022-10-07T01:32:14.874Z,61.09
2022-10-07T01:35:21.575Z,61.10
2022-10-07T01:38:28.836Z,61.11
2022-10-07T01:41:32.282Z,61.12
2022-10-07T01:44:35.085Z,61.11
2022-10-07T01:47:37.825Z,61.09
2022-10-07T01:50:40.002Z,61.11
2022-10-07T01:53:58.565Z,61.12
2022-10-07T01:57:27.172Z,61.12
2022-10-07T02:00:31.143Z,61.13
2022-10-07T02:04:00.864Z,61.12
2022-10-07T02:07:09.009Z,61.13
2022-10-07T02:10:27.338Z,61.12
2022-10-07T02:13:37.937Z,61.11
2022-10-07T02:16:49.667Z,61.12
2022-10-07T02:19:56.432Z,61.14
2022-10-07T02:23:02.167Z,61.13
2022-10-07T02:26:06.646Z,61.12
2022-10-07T02:29:10.681Z,61.10
2022-10-07T02:32:18.847Z,61.10
2022-10-07T02:35:55.033Z,61.15
2022-10-07T02:38:58.359Z,61.13
2022-10-07T02:42:21.842Z,61.12
2022-10-07T02:45:45.968Z,61.12
2022-10-07T02:48:58.814Z,61.12
2022-10-07T02:52:05.427Z,61.13
2022-10-07T02:55:10.482Z,61.12
2022-10-07T02:58:13.961Z,61.14
2022-10-07T03:01:20.335Z,61.13
2022-10-07T03:04:23.076Z,61.14
2022-10-07T03:07:25.767Z,61.12
2022-10-07T03:10:31.498Z,61.14
2022-10-07T03:13:35.243Z,61.15
2022-10-07T03:16:37.472Z,61.13
2022-10-07T03:19:40.372Z,61.15
2022-10-07T03:22:43.770Z,61.15
2022-10-07T03:25:51.651Z,61.11
2022-10-07T03:28:54.156Z,61.12
2022-10-07T03:31:56.231Z,61.12
2022-10-07T03:34:58.317Z,61.10
2022-10-07T03:38:01.021Z,61.10
2022-10-07T03:41:04.515Z,61.14
2022-10-07T03:44:06.569Z,61.10
2022-10-07T03:47:10.621Z,61.12
2022-10-07T03:50:13.024Z,61.12
2022-10-07T03:53:15.098Z,61.12
2022-10-07T03:56:17.129Z,61.10
2022-10-07T03:59:19.167Z,61.14
2022-10-07T04:02:23.471Z,61.11
2022-10-07T04:05:25.541Z,61.13
2022-10-07T04:08:29.108Z,61.12
2022-10-07T04:11:31.518Z,61.11
2022-10-07T04:14:35.008Z,61.12
2022-10-07T04:17:37.002Z,61.10
2022-10-07T04:20:39.294Z,61.13
2022-10-07T04:23:42.318Z,61.11
2022-10-07T04:26:44.323Z,61.12
2022-10-07T04:29:47.102Z,61.14
2022-10-07T04:32:50.593Z,61.09
2022-10-07T04:35:52.771Z,61.13
2022-10-07T04:38:54.821Z,61.12
2022-10-07T04:41:56.983Z,61.10
2022-10-07T04:44:59.030Z,61.13
2022-10-07T04:48:01.912Z,61.12
2022-10-07T04:51:06.283Z,61.11
2022-10-07T04:54:08.561Z,61.12
2022-10-07T04:57:13.444Z,61.15
2022-10-07T05:00:18.594Z,61.15
2022-10-07T05:03:22.397Z,61.13
2022-10-07T05:06:24.396Z,61.15
2022-10-07T05:09:26.449Z,61.17
2022-10-07T05:12:28.534Z,61.16
2022-10-07T05:15:30.670Z,61.18
2022-10-07T05:18:34.169Z,61.20
2022-10-07T05:21:36.383Z,61.22
2022-10-07T05:24:38.558Z,61.35
2022-10-07T05:27:40.971Z,61.22
2022-10-07T05:30:43.467Z,61.37
2022-10-07T05:33:46.137Z,61.43
2022-10-07T05:36:48.205Z,61.50
2022-10-07T05:39:50.366Z,61.54
2022-10-07T05:42:52.572Z,61.60
2022-10-07T05:46:01.014Z,61.54
2022-10-07T05:49:03.175Z,61.62
2022-10-07T05:52:05.672Z,61.72
2022-10-07T05:55:08.195Z,61.70
2022-10-07T05:58:10.178Z,61.73
2022-10-07T06:01:17.984Z,61.67
2022-10-07T06:04:20.034Z,61.79
2022-10-07T06:07:28.389Z,61.84
2022-10-07T06:10:52.740Z,61.84
2022-10-07T06:13:55.305Z,61.88
2022-10-07T06:16:57.863Z,61.89
2022-10-07T06:20:03.241Z,61.98
2022-10-07T06:23:06.917Z,61.89
2022-10-07T06:26:11.499Z,61.92
2022-10-07T06:29:13.472Z,61.36
2022-10-07T06:32:15.583Z,61.05
2022-10-07T06:35:18.087Z,61.28
2022-10-07T06:38:20.290Z,61.28
2022-10-07T06:41:23.333Z,61.46
2022-10-07T06:44:26.901Z,61.47
2022-10-07T06:47:29.060Z,61.44
2022-10-07T06:50:31.080Z,61.57
2022-10-07T06:53:33.554Z,61.61
2022-10-07T06:56:35.585Z,61.78
2022-10-07T06:59:37.686Z,62.02
2022-10-07T07:02:39.716Z,61.95
2022-10-07T07:05:45.326Z,62.13
2022-10-07T07:08:50.255Z,62.17
2022-10-07T07:11:56.427Z,62.09
2022-10-07T07:15:00.343Z,61.85
2022-10-07T07:18:03.581Z,61.57
2022-10-07T07:21:07.746Z,61.41
2022-10-07T07:24:10.063Z,61.34
2022-10-07T07:27:14.385Z,61.24
2022-10-07T07:30:16.625Z,61.12
2022-10-07T07:33:18.737Z,61.08
2022-10-07T07:36:24.012Z,60.89
2022-10-07T07:39:26.114Z,60.72
2022-10-07T07:42:28.178Z,60.73
2022-10-07T07:45:32.934Z,60.41
2022-10-07T07:48:34.932Z,60.31
2022-10-07T07:51:37.592Z,60.36
2022-10-07T07:54:41.802Z,60.32
2022-10-07T07:57:44.298Z,60.21
2022-10-07T08:00:56.767Z,60.12
2022-10-07T08:03:59.378Z,59.99
2022-10-07T08:07:01.399Z,59.90
2022-10-07T08:10:03.599Z,59.89
2022-10-07T08:13:05.779Z,59.91
2022-10-07T08:16:09.185Z,59.90
2022-10-07T08:19:15.348Z,59.94
2022-10-07T08:22:17.657Z,59.85
2022-10-07T08:25:21.319Z,59.77
2022-10-07T08:28:24.067Z,59.69
2022-10-07T08:31:27.471Z,59.72
2022-10-07T08:34:29.605Z,59.71
2022-10-07T08:37:31.756Z,59.76
2022-10-07T08:40:33.813Z,59.83
2022-10-07T08:43:40.634Z,59.82
2022-10-07T08:46:55.825Z,59.66
2022-10-07T08:50:19.464Z,59.64
2022-10-07T08:53:37.625Z,59.76
2022-10-07T08:56:39.879Z,59.67
2022-10-07T08:59:48.397Z,59.67
2022-10-07T09:03:07.297Z,59.67
2022-10-07T09:06:13.970Z,59.75
2022-10-07T09:09:33.731Z,59.83
2022-10-07T09:12:43.245Z,59.99
2022-10-07T09:15:58.924Z,60.06
2022-10-07T09:19:03.693Z,59.99
2022-10-07T09:22:29.064Z,59.95
2022-10-07T09:25:31.932Z,59.83
2022-10-07T09:28:34.293Z,59.93
2022-10-07T09:31:36.553Z,59.93
2022-10-07T09:34:38.839Z,59.86
2022-10-07T09:37:56.574Z,59.92
2022-10-07T09:41:16.905Z,59.94
2022-10-07T09:44:25.776Z,60.06
2022-10-07T09:47:36.603Z,60.09
2022-10-07T09:50:43.560Z,59.97
2022-10-07T09:53:59.317Z,60.06
2022-10-07T09:57:03.550Z,60.09
2022-10-07T10:00:26.813Z,60.10
2022-10-07T10:03:34.297Z,60.14
2022-10-07T10:06:36.450Z,60.14
2022-10-07T10:09:38.697Z,60.15
2022-10-07T10:12:51.789Z,60.18
2022-10-07T10:15:53.957Z,60.25
2022-10-07T10:19:04.685Z,60.28
2022-10-07T10:22:40.340Z,60.41
2022-10-07T10:26:10.689Z,60.54
2022-10-07T10:29:30.712Z,60.54
2022-10-07T10:33:06.314Z,60.51
2022-10-07T10:36:22.042Z,60.54
2022-10-07T10:39:43.907Z,60.63
2022-10-07T10:43:07.035Z,60.83
2022-10-07T10:46:39.165Z,60.93
2022-10-07T10:49:54.768Z,61.09
2022-10-07T10:53:12.503Z,61.37
2022-10-07T10:56:26.261Z,61.60
2022-10-07T10:59:46.458Z,61.79
2022-10-07T11:03:14.826Z,62.00
2022-10-07T11:06:19.118Z,63.18
2022-10-07T11:09:43.402Z,63.97
2022-10-07T11:12:51.035Z,64.27
2022-10-07T11:16:08.260Z,64.75
2022-10-07T11:19:22.487Z,64.74
2022-10-07T11:22:34.363Z,64.03
2022-10-07T11:25:57.506Z,64.12
2022-10-07T11:29:10.269Z,63.85
2022-10-07T11:32:36.008Z,62.44
2022-10-07T11:35:48.941Z,62.41
2022-10-07T11:38:52.937Z,62.05
2022-10-07T11:41:59.944Z,61.63
2022-10-07T11:45:10.406Z,60.62
2022-10-07T11:48:18.985Z,61.14
2022-10-07T11:51:50.441Z,61.18
2022-10-07T11:55:05.062Z,60.78
2022-10-07T11:58:23.813Z,59.21
2022-10-07T12:01:25.808Z,59.16
2022-10-07T12:04:30.972Z,59.81
2022-10-07T12:07:37.063Z,61.50
2022-10-07T12:10:39.261Z,61.86
2022-10-07T12:13:45.179Z,60.16
2022-10-07T12:16:55.066Z,58.89
2022-10-07T12:20:37.231Z,59.05
2022-10-07T12:23:41.143Z,58.92
2022-10-07T12:26:45.882Z,59.06
2022-10-07T12:29:50.864Z,59.15
2022-10-07T12:32:53.110Z,59.45
2022-10-07T12:35:55.391Z,58.64
2022-10-07T12:38:57.503Z,58.82
2022-10-07T12:42:00.980Z,58.96
2022-10-07T12:45:05.345Z,58.85
2022-10-07T12:48:14.476Z,59.17
2022-10-07T12:51:28.492Z,59.54
2022-10-07T12:54:38.416Z,59.65
2022-10-07T12:57:42.733Z,59.51
2022-10-07T13:01:23.914Z,58.96
2022-10-07T13:04:53.833Z,58.56
2022-10-07T13:08:09.131Z,58.58
2022-10-07T13:11:32.732Z,58.60
2022-10-07T13:14:56.553Z,59.00
2022-10-07T13:18:10.865Z,59.13
2022-10-07T13:21:21.945Z,58.95
2022-10-07T13:24:26.094Z,58.75
2022-10-07T13:27:31.021Z,59.13
2022-10-07T13:30:41.674Z,59.62
2022-10-07T13:33:44.393Z,59.67
2022-10-07T13:36:46.577Z,57.98
2022-10-07T13:39:48.608Z,58.48
2022-10-07T13:42:55.431Z,58.16
2022-10-07T13:45:58.710Z,58.58
2022-10-07T13:49:02.398Z,57.68
2022-10-07T13:52:13.421Z,57.29
2022-10-07T13:55:33.013Z,57.60
2022-10-07T13:58:36.672Z,58.07
2022-10-07T14:01:40.303Z,58.09
2022-10-07T14:05:05.885Z,58.67
2022-10-07T14:08:21.161Z,59.12
2022-10-07T14:11:23.306Z,59.32
2022-10-07T14:14:32.512Z,59.30
2022-10-07T14:18:08.406Z,58.91
2022-10-07T14:21:17.008Z,59.14
2022-10-07T14:24:20.615Z,59.13
2022-10-07T14:27:59.726Z,58.58
2022-10-07T14:31:26.666Z,58.75
2022-10-07T14:35:00.856Z,59.06
2022-10-07T14:38:41.860Z,59.22
2022-10-07T14:41:44.127Z,59.35
2022-10-07T14:44:46.756Z,59.32
2022-10-07T14:47:49.643Z,59.51
2022-10-07T14:50:52.495Z,59.64
2022-10-07T14:54:03.322Z,59.90
2022-10-07T14:57:05.341Z,60.14
2022-10-07T15:00:37.365Z,59.74
2022-10-07T15:03:41.544Z,59.51
2022-10-07T15:06:47.462Z,59.60
2022-10-07T15:09:52.347Z,59.84
2022-10-07T15:12:56.077Z,59.99
2022-10-07T15:15:59.060Z,60.12
2022-10-07T15:19:02.071Z,59.97
2022-10-07T15:22:04.310Z,59.97
2022-10-07T15:25:08.232Z,60.18
2022-10-07T15:28:10.374Z,60.18
2022-10-07T15:31:12.480Z,60.31
2022-10-07T15:34:15.460Z,60.34
2022-10-07T15:37:17.522Z,60.38
2022-10-07T15:40:20.114Z,60.41
2022-10-07T15:43:22.742Z,60.41
2022-10-07T15:46:24.986Z,60.40
2022-10-07T15:49:27.127Z,60.57
2022-10-07T15:52:29.188Z,60.73
2022-10-07T15:55:32.579Z,60.69
2022-10-07T15:58:34.764Z,60.72
2022-10-07T16:01:37.432Z,60.57
2022-10-07T16:04:42.720Z,60.92
2022-10-07T16:07:45.090Z,60.90
2022-10-07T16:10:47.285Z,61.30
2022-10-07T16:13:50.298Z,61.43
2022-10-07T16:16:52.449Z,61.27
2022-10-07T16:19:54.526Z,61.34
2022-10-07T16:22:56.801Z,61.79
2022-10-07T16:26:06.781Z,61.86
2022-10-07T16:29:33.290Z,62.52
2022-10-07T16:32:35.294Z,62.62
2022-10-07T16:35:37.570Z,62.87
2022-10-07T16:38:42.556Z,62.97
2022-10-07T16:41:45.687Z,63.02
2022-10-07T16:44:50.738Z,63.34
2022-10-07T16:47:54.944Z,63.25
2022-10-07T16:50:58.170Z,63.35
2022-10-07T16:54:03.850Z,63.04
2022-10-07T16:57:05.918Z,62.95
2022-10-07T17:00:08.514Z,62.56
2022-10-07T17:03:10.574Z,62.40
2022-10-07T17:06:14.748Z,62.11
2022-10-07T17:09:18.171Z,62.05
2022-10-07T17:12:20.651Z,61.96
2022-10-07T17:15:22.716Z,61.98
2022-10-07T17:18:26.639Z,62.01
2022-10-07T17:21:28.741Z,61.94
2022-10-07T17:24:31.026Z,61.95
2022-10-07T17:27:33.071Z,62.22
2022-10-07T17:30:35.111Z,62.25
2022-10-07T17:33:40.556Z,62.43
2022-10-07T17:36:43.768Z,62.44
2022-10-07T17:39:45.792Z,62.48
2022-10-07T17:42:47.792Z,62.37
2022-10-07T17:45:49.846Z,61.95
2022-10-07T17:48:56.585Z,62.04
2022-10-07T17:51:58.658Z,62.19
2022-10-07T17:55:00.753Z,62.22
2022-10-07T17:58:02.841Z,62.15
2022-10-07T18:01:11.530Z,62.18
2022-10-07T18:04:23.732Z,62.10
2022-10-07T18:07:26.821Z,62.27
2022-10-07T18:10:29.639Z,62.13
2022-10-07T18:13:51.778Z,62.22
2022-10-07T18:16:54.420Z,62.16
2022-10-07T18:19:58.756Z,62.06
2022-10-07T18:23:00.784Z,62.00
2022-10-07T18:26:08.555Z,62.05
2022-10-07T18:29:11.232Z,62.03
2022-10-07T18:32:13.291Z,62.01
2022-10-07T18:35:15.526Z,62.12
2022-10-07T18:38:17.515Z,62.15
2022-10-07T18:41:19.779Z,62.08
2022-10-07T18:44:22.329Z,62.05
2022-10-07T18:47:24.387Z,62.12
2022-10-07T18:50:30.130Z,62.15
2022-10-07T18:53:37.771Z,62.12
2022-10-07T18:56:41.280Z,62.12
2022-10-07T18:59:43.527Z,62.14
2022-10-07T19:02:46.105Z,62.18
2022-10-07T19:05:48.107Z,62.12
2022-10-07T19:08:54.163Z,62.20
2022-10-07T19:11:56.249Z,62.11
2022-10-07T19:14:58.324Z,62.14
2022-10-07T19:18:01.205Z,62.05
2022-10-07T19:21:03.519Z,61.89
2022-10-07T19:24:06.066Z,62.05
2022-10-07T19:27:08.400Z,62.08
2022-10-07T19:30:10.991Z,62.08
2022-10-07T19:33:12.995Z,62.02
2022-10-07T19:36:15.676Z,62.05
2022-10-07T19:39:20.484Z,62.05
2022-10-07T19:42:22.628Z,62.04
2022-10-07T19:45:24.727Z,62.02
2022-10-07T19:48:27.024Z,62.05
2022-10-07T19:51:30.648Z,61.95
2022-10-07T19:54:35.798Z,61.93
2022-10-07T19:57:37.801Z,61.94
2022-10-07T20:00:39.799Z,61.94
2022-10-07T20:03:42.302Z,61.99
2022-10-07T20:06:44.728Z,61.88
2022-10-07T20:09:46.779Z,61.96
2022-10-07T20:12:48.843Z,61.91
2022-10-07T20:15:51.008Z,61.92
2022-10-07T20:19:00.937Z,61.89
2022-10-07T20:22:03.646Z,61.92
2022-10-07T20:25:06.551Z,61.90
2022-10-07T20:28:08.627Z,61.93
2022-10-07T20:31:12.667Z,61.92
2022-10-07T20:34:18.799Z,61.95
2022-10-07T20:37:21.429Z,61.92
2022-10-07T20:40:42.065Z,61.95
2022-10-07T20:43:44.109Z,61.99
2022-10-07T20:46:46.248Z,61.89
2022-10-07T20:49:50.729Z,61.93
2022-10-07T20:52:52.735Z,61.93
2022-10-07T20:55:54.735Z,61.93
2022-10-07T20:58:57.016Z,61.94
2022-10-07T21:01:59.635Z,61.97
2022-10-07T21:05:01.753Z,62.00
2022-10-07T21:08:03.759Z,61.99
2022-10-07T21:11:06.115Z,61.97
2022-10-07T21:14:08.144Z,61.98
2022-10-07T21:17:11.148Z,61.97
2022-10-07T21:20:13.348Z,61.99
2022-10-07T21:23:15.384Z,62.02
2022-10-07T21:26:18.139Z,62.03
2022-10-07T21:29:20.201Z,62.03
2022-10-07T21:32:22.191Z,62.04
2022-10-07T21:35:24.233Z,62.04
2022-10-07T21:38:27.691Z,62.01
2022-10-07T21:41:31.485Z,62.08
2022-10-07T21:44:35.905Z,62.05
2022-10-07T21:47:38.305Z,62.05
2022-10-07T21:50:40.698Z,62.04
2022-10-07T21:53:42.813Z,62.05
2022-10-07T21:56:46.296Z,62.06
2022-10-07T21:59:48.493Z,62.07
2022-10-07T22:02:51.881Z,62.08
2022-10-07T22:05:53.980Z,62.08
2022-10-07T22:08:56.572Z,62.09
2022-10-07T22:11:58.673Z,62.06
2022-10-07T22:15:00.894Z,62.08
2022-10-07T22:18:04.231Z,62.04
2022-10-07T22:21:16.748Z,62.05
2022-10-07T22:24:18.924Z,62.06
2022-10-07T22:27:22.010Z,62.06
2022-10-07T22:30:24.689Z,62.08
2022-10-07T22:33:26.789Z,62.05
2022-10-07T22:36:29.460Z,62.08
2022-10-07T22:39:31.655Z,62.12
2022-10-07T22:42:35.923Z,62.10
2022-10-07T22:45:37.982Z,62.13
2022-10-07T22:48:43.039Z,62.13
2022-10-07T22:51:45.179Z,62.10
2022-10-07T22:54:47.240Z,62.11
2022-10-07T22:57:50.780Z,62.12
2022-10-07T23:00:52.862Z,62.15
2022-10-07T23:03:55.459Z,62.18
2022-10-07T23:06:58.168Z,62.15
2022-10-07T23:10:00.224Z,62.18
2022-10-07T23:13:03.396Z,62.18
2022-10-07T23:16:11.174Z,62.19
2022-10-07T23:19:13.341Z,62.15
2022-10-07T23:22:15.392Z,62.16
2022-10-07T23:25:17.427Z,62.19
2022-10-07T23:28:21.613Z,62.21
2022-10-07T23:31:27.438Z,62.19
2022-10-07T23:34:29.512Z,62.18
2022-10-07T23:37:31.583Z,62.19
2022-10-07T23:40:33.881Z,62.21
2022-10-07T23:43:36.163Z,62.19
2022-10-07T23:46:39.546Z,62.20
2022-10-07T23:49:41.742Z,62.21
2022-10-07T23:52:44.596Z,62.22
2022-10-07T23:55:48.278Z,62.24
2022-10-07T23:58:50.375Z,62.24
